Terminal Aerodrome Forecast
Issued by NWS Lake Charles, LA

Home | Current Version | Previous Version | Text Only | Print | Product List | Glossary On
Versions: 1 2 3 4 5 6 7 8 9 10 11 12 13 14 15 16 17 18 19 20
000
FTUS44 KLCH 180650 AAA
TAFLCH
TAF AMD
KLCH 180650Z 1807/1906 VRB10G15KT P6SM VCTS SCT015CB OVC090
      TEMPO 1807/1811 1SM +TSRA OVC015CB
     FM181100 09010KT P6SM -RA VCTS OVC015CB
     FM181600 23010KT P6SM VCTS OVC025CB=

USA.gov is the U.S. government's official web portal to all federal, state and local government web resources and services.